createdAt,value
2022-11-23T00:01:26.939Z,68.17
2022-11-23T00:03:56.179Z,67.85
2022-11-23T00:06:23.850Z,67.33
2022-11-23T00:08:51.053Z,67.59
2022-11-23T00:11:18.279Z,67.42
2022-11-23T00:13:45.451Z,67.39
2022-11-23T00:16:20.422Z,67.38
2022-11-23T00:18:47.535Z,67.63
2022-11-23T00:21:16.457Z,67.18
2022-11-23T00:23:43.478Z,66.88
2022-11-23T00:26:10.315Z,67.75
2022-11-23T00:28:39.801Z,67.64
2022-11-23T00:31:07.108Z,68.13
2022-11-23T00:33:33.841Z,67.98
2022-11-23T00:36:06.561Z,67.36
2022-11-23T00:38:33.191Z,67.70
2022-11-23T00:41:06.028Z,67.92
2022-11-23T00:43:33.026Z,67.65
2022-11-23T00:46:10.313Z,67.80
2022-11-23T00:48:37.453Z,68.09
2022-11-23T00:51:06.409Z,68.07
2022-11-23T00:53:33.099Z,68.29
2022-11-23T00:55:59.725Z,67.63
2022-11-23T00:58:26.739Z,67.36
2022-11-23T01:01:08.193Z,68.16
2022-11-23T01:03:36.786Z,68.17
2022-11-23T01:06:11.495Z,67.41
2022-11-23T01:08:38.774Z,67.29
2022-11-23T01:11:10.283Z,66.83
2022-11-23T01:13:39.415Z,66.78
2022-11-23T01:16:23.614Z,66.49
2022-11-23T01:19:02.406Z,66.36
2022-11-23T01:21:30.265Z,66.83
2022-11-23T01:23:57.082Z,67.06
2022-11-23T01:26:23.721Z,66.98
2022-11-23T01:28:50.667Z,66.75
2022-11-23T01:31:19.753Z,66.53
2022-11-23T01:33:47.174Z,65.82
2022-11-23T01:36:17.271Z,66.20
2022-11-23T01:38:44.679Z,66.51
2022-11-23T01:41:17.460Z,66.50
2022-11-23T01:43:44.223Z,65.70
2022-11-23T01:46:11.962Z,66.78
2022-11-23T01:48:44.550Z,67.04
2022-11-23T01:51:14.220Z,66.74
2022-11-23T01:53:41.625Z,66.05
2022-11-23T01:56:10.636Z,65.58
2022-11-23T01:58:39.736Z,65.83
2022-11-23T02:01:07.021Z,65.81
2022-11-23T02:03:35.005Z,65.83
2022-11-23T02:06:08.357Z,66.21
2022-11-23T02:08:37.630Z,66.52
2022-11-23T02:11:04.555Z,66.93
2022-11-23T02:13:31.313Z,67.25
2022-11-23T02:15:59.203Z,66.70
2022-11-23T02:18:27.455Z,66.83
2022-11-23T02:20:54.060Z,66.85
2022-11-23T02:23:33.563Z,66.27
2022-11-23T02:26:22.503Z,66.49
2022-11-23T02:28:58.775Z,66.31
2022-11-23T02:31:25.586Z,66.44
2022-11-23T02:33:54.056Z,66.40
2022-11-23T02:37:02.783Z,66.86
2022-11-23T02:39:37.768Z,66.76
2022-11-23T02:42:05.268Z,67.22
2022-11-23T02:44:42.428Z,67.01
2022-11-23T02:47:10.375Z,66.68
2022-11-23T02:49:41.165Z,67.02
2022-11-23T02:52:08.400Z,67.46
2022-11-23T02:54:35.390Z,67.51
2022-11-23T02:57:02.396Z,67.76
2022-11-23T02:59:32.486Z,66.90
2022-11-23T03:02:04.219Z,66.85
2022-11-23T03:04:31.343Z,66.95
2022-11-23T03:06:58.569Z,67.58
2022-11-23T03:09:26.314Z,67.87
2022-11-23T03:11:53.735Z,68.35
2022-11-23T03:14:20.555Z,67.94
2022-11-23T03:16:51.938Z,68.03
2022-11-23T03:19:19.904Z,66.60
2022-11-23T03:21:48.201Z,66.16
2022-11-23T03:24:15.287Z,66.42
2022-11-23T03:26:41.953Z,66.81
2022-11-23T03:29:17.549Z,67.21
2022-11-23T03:31:44.136Z,65.92
2022-11-23T03:34:13.987Z,65.93
2022-11-23T03:36:40.594Z,66.09
2022-11-23T03:39:08.122Z,66.14
2022-11-23T03:41:55.012Z,66.21
2022-11-23T03:44:24.580Z,66.06
2022-11-23T03:46:51.101Z,66.31
2022-11-23T03:49:17.635Z,66.82
2022-11-23T03:51:44.687Z,67.14
2022-11-23T03:54:11.206Z,67.05
2022-11-23T03:56:38.542Z,67.27
2022-11-23T03:59:05.177Z,67.46
2022-11-23T04:01:31.916Z,67.56
2022-11-23T04:04:03.635Z,67.43
2022-11-23T04:06:50.164Z,67.29
2022-11-23T04:09:23.873Z,67.19
2022-11-23T04:12:13.651Z,66.81
2022-11-23T04:14:40.307Z,67.35
2022-11-23T04:17:06.920Z,65.72
2022-11-23T04:19:33.624Z,65.60
2022-11-23T04:22:00.578Z,66.00
2022-11-23T04:24:31.738Z,66.16
2022-11-23T04:27:02.196Z,66.19
2022-11-23T04:29:29.397Z,66.60
2022-11-23T04:31:56.475Z,66.98
2022-11-23T04:34:22.992Z,65.88
2022-11-23T04:36:51.824Z,66.44
2022-11-23T04:39:22.798Z,66.70
2022-11-23T04:42:15.492Z,66.56
2022-11-23T04:44:48.177Z,66.63
2022-11-23T04:47:15.022Z,66.93
2022-11-23T04:49:45.260Z,67.10
2022-11-23T04:52:12.344Z,66.39
2022-11-23T04:54:44.755Z,66.97
2022-11-23T04:57:11.591Z,66.50
2022-11-23T04:59:39.252Z,64.58
2022-11-23T05:02:06.256Z,65.08
2022-11-23T05:04:38.840Z,64.87
2022-11-23T05:07:05.897Z,64.95
2022-11-23T05:09:34.836Z,64.27
2022-11-23T05:12:09.679Z,64.81
2022-11-23T05:14:36.432Z,64.98
2022-11-23T05:17:03.783Z,65.22
2022-11-23T05:19:30.812Z,64.24
2022-11-23T05:21:57.858Z,64.64
2022-11-23T05:24:25.219Z,64.25
2022-11-23T05:27:07.523Z,64.79
2022-11-23T05:29:34.716Z,64.83
2022-11-23T05:32:04.296Z,65.09
2022-11-23T05:34:30.891Z,65.14
2022-11-23T05:36:58.092Z,65.12
2022-11-23T05:39:25.095Z,65.32
2022-11-23T05:42:26.246Z,65.83
2022-11-23T05:44:56.155Z,66.22
2022-11-23T05:47:29.892Z,66.10
2022-11-23T05:49:56.944Z,65.65
2022-11-23T05:52:27.091Z,65.73
2022-11-23T05:54:53.922Z,65.66
2022-11-23T05:57:22.395Z,65.63
2022-11-23T05:59:50.147Z,66.11
2022-11-23T06:02:21.028Z,65.84
2022-11-23T06:04:51.404Z,66.58
2022-11-23T06:07:24.228Z,66.75
2022-11-23T06:10:06.360Z,66.73
2022-11-23T06:12:34.867Z,66.73
2022-11-23T06:15:04.988Z,67.09
2022-11-23T06:17:31.924Z,67.01
2022-11-23T06:20:03.420Z,66.39
2022-11-23T06:22:30.121Z,66.76
2022-11-23T06:25:02.632Z,66.95
2022-11-23T06:27:29.143Z,66.13
2022-11-23T06:29:55.998Z,66.64
2022-11-23T06:32:25.106Z,65.39
2022-11-23T06:34:51.726Z,64.33
2022-11-23T06:37:18.495Z,64.79
2022-11-23T06:39:50.862Z,65.28
2022-11-23T06:42:37.750Z,65.40
2022-11-23T06:45:04.682Z,65.15
2022-11-23T06:47:31.451Z,64.37
2022-11-23T06:49:58.246Z,64.93
2022-11-23T06:52:27.989Z,65.39
2022-11-23T06:54:54.787Z,65.54
2022-11-23T06:57:23.437Z,65.57
2022-11-23T06:59:50.297Z,66.13
2022-11-23T07:02:22.363Z,66.00
2022-11-23T07:04:51.184Z,66.32
2022-11-23T07:07:17.803Z,66.42
2022-11-23T07:09:50.803Z,65.42
2022-11-23T07:12:37.688Z,66.62
2022-11-23T07:15:05.378Z,66.23
2022-11-23T07:17:40.063Z,66.33
2022-11-23T07:20:09.894Z,66.56
2022-11-23T07:22:37.444Z,66.57
2022-11-23T07:25:05.200Z,66.22
2022-11-23T07:27:31.919Z,66.42
2022-11-23T07:30:00.489Z,66.43
2022-11-23T07:32:27.166Z,66.64
2022-11-23T07:34:54.274Z,66.56
2022-11-23T07:37:21.159Z,66.34
2022-11-23T07:40:03.542Z,66.51
2022-11-23T07:42:36.936Z,66.64
2022-11-23T07:45:07.158Z,66.32
2022-11-23T07:47:35.911Z,66.41
2022-11-23T07:50:02.485Z,66.47
2022-11-23T07:52:29.136Z,66.21
2022-11-23T07:54:55.700Z,66.06
2022-11-23T07:57:22.280Z,66.28
2022-11-23T07:59:48.875Z,66.06
2022-11-23T08:02:16.248Z,66.22
2022-11-23T08:04:42.759Z,65.62
2022-11-23T08:07:09.435Z,64.97
2022-11-23T08:09:36.186Z,64.69
2022-11-23T08:12:02.713Z,64.42
2022-11-23T08:14:29.264Z,63.70
2022-11-23T08:16:55.869Z,64.11
2022-11-23T08:19:22.413Z,64.96
2022-11-23T08:21:48.979Z,64.41
2022-11-23T08:24:15.484Z,65.19
2022-11-23T08:26:42.218Z,64.80
2022-11-23T08:29:08.785Z,64.08
2022-11-23T08:31:35.534Z,64.26
2022-11-23T08:34:03.806Z,63.40
2022-11-23T08:36:30.604Z,62.69
2022-11-23T08:38:57.221Z,63.14
2022-11-23T08:41:23.992Z,62.78
2022-11-23T08:43:51.465Z,63.93
2022-11-23T08:46:17.976Z,62.90
2022-11-23T08:48:45.266Z,62.81
2022-11-23T08:51:11.724Z,62.47
2022-11-23T08:53:38.633Z,61.92
2022-11-23T08:56:06.481Z,62.61
2022-11-23T08:58:33.121Z,61.58
2022-11-23T09:00:59.729Z,61.83
2022-11-23T09:03:26.306Z,61.43
2022-11-23T09:05:54.543Z,60.97
2022-11-23T09:08:21.267Z,60.38
2022-11-23T09:10:47.876Z,59.77
2022-11-23T09:13:14.430Z,60.34
2022-11-23T09:15:40.919Z,60.67
2022-11-23T09:18:07.494Z,58.95
2022-11-23T09:20:34.207Z,59.45
2022-11-23T09:23:00.822Z,60.16
2022-11-23T09:25:27.367Z,59.66
2022-11-23T09:27:58.646Z,59.55
2022-11-23T09:30:25.992Z,59.22
2022-11-23T09:32:52.616Z,59.26
2022-11-23T09:35:19.176Z,58.83
2022-11-23T09:37:45.787Z,59.03
2022-11-23T09:40:17.291Z,57.39
2022-11-23T09:42:59.011Z,58.86
2022-11-23T09:45:47.331Z,58.56
2022-11-23T09:48:51.476Z,58.62
2022-11-23T09:51:20.573Z,58.60
2022-11-23T09:53:53.930Z,56.66
2022-11-23T09:56:23.741Z,56.43
2022-11-23T09:58:54.661Z,57.70
2022-11-23T10:01:21.650Z,57.44
2022-11-23T10:03:49.480Z,57.54
2022-11-23T10:06:36.279Z,57.94
2022-11-23T10:09:54.286Z,55.72
2022-11-23T10:12:40.161Z,54.68
2022-11-23T10:15:11.441Z,58.31
2022-11-23T10:17:59.601Z,56.41
2022-11-23T10:20:50.985Z,56.77
2022-11-23T10:23:55.640Z,57.33
2022-11-23T10:26:32.605Z,56.29
2022-11-23T10:29:07.367Z,56.58
2022-11-23T10:31:33.971Z,55.88
2022-11-23T10:34:15.024Z,53.92
2022-11-23T10:36:41.882Z,55.23
2022-11-23T10:39:26.003Z,54.31
2022-11-23T10:41:53.901Z,56.42
2022-11-23T10:44:33.198Z,55.49
2022-11-23T10:47:00.172Z,55.62
2022-11-23T10:49:33.747Z,55.23
2022-11-23T10:52:05.553Z,54.45
2022-11-23T10:54:47.434Z,54.33
2022-11-23T10:57:25.650Z,54.39
2022-11-23T11:00:10.604Z,54.72
2022-11-23T11:02:40.656Z,52.72
2022-11-23T11:05:46.455Z,53.53
2022-11-23T11:08:15.388Z,55.31
2022-11-23T11:11:03.184Z,56.04
2022-11-23T11:13:46.656Z,55.35
2022-11-23T11:16:28.143Z,55.38
2022-11-23T11:18:54.697Z,53.89
2022-11-23T11:21:27.985Z,53.20
2022-11-23T11:23:59.141Z,55.32
2022-11-23T11:26:27.732Z,52.84
2022-11-23T11:29:02.327Z,55.30
2022-11-23T11:31:41.724Z,52.10
2022-11-23T11:34:22.626Z,55.91
2022-11-23T11:37:02.857Z,53.87
2022-11-23T11:39:38.429Z,54.36
2022-11-23T11:42:07.524Z,53.07
2022-11-23T11:44:36.909Z,53.51
2022-11-23T11:47:17.746Z,54.33
2022-11-23T11:49:44.512Z,53.63
2022-11-23T11:52:15.567Z,55.00
2022-11-23T11:55:11.245Z,51.61
2022-11-23T11:57:43.870Z,53.60
2022-11-23T12:00:16.105Z,52.84
2022-11-23T12:03:23.596Z,50.95
2022-11-23T12:05:52.328Z,49.81
2022-11-23T12:08:40.787Z,51.11
2022-11-23T12:11:10.304Z,51.26
2022-11-23T12:13:39.073Z,51.35
2022-11-23T12:16:14.617Z,50.20
2022-11-23T12:18:50.117Z,52.22
2022-11-23T12:21:36.716Z,51.99
2022-11-23T12:24:27.487Z,51.57
2022-11-23T12:27:04.198Z,51.64
2022-11-23T12:29:39.393Z,51.35
2022-11-23T12:32:11.911Z,50.35
2022-11-23T12:34:41.363Z,51.29
2022-11-23T12:37:20.641Z,52.11
2022-11-23T12:40:04.176Z,51.26
2022-11-23T12:42:42.112Z,49.22
2022-11-23T12:45:25.041Z,49.59
2022-11-23T12:48:27.716Z,49.69
2022-11-23T12:51:15.015Z,50.27
2022-11-23T12:53:57.718Z,49.42
2022-11-23T12:56:50.387Z,51.35
2022-11-23T12:59:17.574Z,50.92
2022-11-23T13:01:52.649Z,49.92
2022-11-23T13:04:52.895Z,49.57
2022-11-23T13:07:49.454Z,49.40
2022-11-23T13:10:19.207Z,49.17
2022-11-23T13:13:02.044Z,49.70
2022-11-23T13:15:34.837Z,50.65
2022-11-23T13:18:11.286Z,50.66
2022-11-23T13:20:46.857Z,49.79
2022-11-23T13:23:13.537Z,50.50
2022-11-23T13:25:40.126Z,51.24
2022-11-23T13:28:29.694Z,50.59
2022-11-23T13:31:19.115Z,50.66
2022-11-23T13:33:48.236Z,50.86
2022-11-23T13:36:56.589Z,52.74
2022-11-23T13:39:43.156Z,51.47
2022-11-23T13:42:10.813Z,50.11
2022-11-23T13:44:38.950Z,49.79
2022-11-23T13:47:17.488Z,51.78
2022-11-23T13:49:52.614Z,51.71
2022-11-23T13:52:22.504Z,51.72
2022-11-23T13:55:09.021Z,52.07
2022-11-23T13:57:41.242Z,51.75
2022-11-23T14:00:45.463Z,53.89
2022-11-23T14:03:49.135Z,52.98
2022-11-23T14:06:32.856Z,54.33
2022-11-23T14:09:32.916Z,53.37
2022-11-23T14:11:59.358Z,52.38
2022-11-23T14:14:31.461Z,54.38
2022-11-23T14:17:26.959Z,53.58
2022-11-23T14:20:06.153Z,53.75
2022-11-23T14:22:59.562Z,53.16
2022-11-23T14:25:48.871Z,53.19
2022-11-23T14:28:56.984Z,52.29
2022-11-23T14:31:42.218Z,53.87
2022-11-23T14:34:25.421Z,51.71
2022-11-23T14:37:30.056Z,53.56
2022-11-23T14:40:29.452Z,53.16
2022-11-23T14:42:57.601Z,54.17
2022-11-23T14:45:28.680Z,54.40
2022-11-23T14:47:55.430Z,53.37
2022-11-23T14:50:27.491Z,53.88
2022-11-23T14:52:56.418Z,53.60
2022-11-23T14:55:28.282Z,54.23
2022-11-23T14:58:05.820Z,53.89
2022-11-23T15:00:50.758Z,55.02
2022-11-23T15:03:49.211Z,54.91
2022-11-23T15:06:16.013Z,55.41
2022-11-23T15:08:53.438Z,56.95
2022-11-23T15:11:27.317Z,58.39
2022-11-23T15:14:05.218Z,56.34
2022-11-23T15:16:39.803Z,56.01
2022-11-23T15:19:30.282Z,55.38
2022-11-23T15:21:58.361Z,58.14
2022-11-23T15:24:28.556Z,59.11
2022-11-23T15:27:10.886Z,58.93
2022-11-23T15:29:51.812Z,59.94
2022-11-23T15:32:31.867Z,60.59
2022-11-23T15:35:13.009Z,60.30
2022-11-23T15:37:50.405Z,61.04
2022-11-23T15:40:18.703Z,60.13
2022-11-23T15:42:47.587Z,59.19
2022-11-23T15:45:33.894Z,58.24
2022-11-23T15:48:02.571Z,58.39
2022-11-23T15:50:33.808Z,57.69
2022-11-23T15:53:00.751Z,57.48
2022-11-23T15:55:29.746Z,58.38
2022-11-23T15:57:56.890Z,57.38
2022-11-23T16:00:25.590Z,56.82
2022-11-23T16:02:52.983Z,56.36
2022-11-23T16:05:22.668Z,56.93
2022-11-23T16:07:51.342Z,55.40
2022-11-23T16:10:21.295Z,56.70
2022-11-23T16:12:50.416Z,55.70
2022-11-23T16:15:43.436Z,55.89
2022-11-23T16:18:13.013Z,56.02
2022-11-23T16:20:44.325Z,55.49
2022-11-23T16:23:57.504Z,55.86
2022-11-23T16:26:33.142Z,55.25
2022-11-23T16:29:00.820Z,55.46
2022-11-23T16:31:43.122Z,54.66
2022-11-23T16:34:13.694Z,53.21
2022-11-23T16:36:40.323Z,55.35
2022-11-23T16:39:07.600Z,54.41
2022-11-23T16:41:34.325Z,54.37
2022-11-23T16:44:01.448Z,53.39
2022-11-23T16:46:28.093Z,52.66
2022-11-23T16:48:57.258Z,52.39
2022-11-23T16:51:24.181Z,53.41
2022-11-23T16:54:13.121Z,54.09
2022-11-23T16:56:38.324Z,54.00
2022-11-23T16:59:04.886Z,55.30
2022-11-23T17:01:32.518Z,55.68
2022-11-23T17:03:59.109Z,54.86
2022-11-23T17:06:25.851Z,56.32
2022-11-23T17:08:59.567Z,57.33
2022-11-23T17:11:29.993Z,58.52
2022-11-23T17:13:56.935Z,58.18
2022-11-23T17:16:24.761Z,59.76
2022-11-23T17:18:51.502Z,60.04
2022-11-23T17:21:18.263Z,61.13
2022-11-23T17:23:44.766Z,61.80
2022-11-23T17:26:29.109Z,63.57
2022-11-23T17:28:55.821Z,63.59
2022-11-23T17:31:22.567Z,65.18
2022-11-23T17:33:49.393Z,65.65
2022-11-23T17:36:16.247Z,64.79
2022-11-23T17:38:46.959Z,64.95
2022-11-23T17:41:14.548Z,65.31
2022-11-23T17:43:41.273Z,65.92
2022-11-23T17:46:16.512Z,66.09
2022-11-23T17:48:43.197Z,66.18
2022-11-23T17:51:12.481Z,66.11
2022-11-23T17:53:39.313Z,67.02
2022-11-23T17:56:06.268Z,66.77
2022-11-23T17:58:32.885Z,67.32
2022-11-23T18:00:59.516Z,67.28
2022-11-23T18:03:26.178Z,67.31
2022-11-23T18:05:52.794Z,67.77
2022-11-23T18:08:19.921Z,68.56
2022-11-23T18:10:46.490Z,68.18
2022-11-23T18:13:13.108Z,67.89
2022-11-23T18:15:39.711Z,68.38
2022-11-23T18:18:06.430Z,69.35
2022-11-23T18:20:33.083Z,69.12
2022-11-23T18:22:59.712Z,68.66
2022-11-23T18:25:26.396Z,68.91
2022-11-23T18:27:54.301Z,69.52
2022-11-23T18:30:20.886Z,69.43
2022-11-23T18:32:47.491Z,69.49
2022-11-23T18:35:14.140Z,70.43
2022-11-23T18:37:40.782Z,70.08
2022-11-23T18:40:07.897Z,69.80
2022-11-23T18:42:34.465Z,69.45
2022-11-23T18:45:01.237Z,69.73
2022-11-23T18:47:27.888Z,69.34
2022-11-23T18:49:54.515Z,69.63
2022-11-23T18:52:21.090Z,69.58
2022-11-23T18:54:47.655Z,70.66
2022-11-23T18:57:18.288Z,70.50
2022-11-23T19:00:01.311Z,70.28
2022-11-23T19:02:28.347Z,70.36
2022-11-23T19:04:54.896Z,70.37
2022-11-23T19:07:26.632Z,71.02
2022-11-23T19:09:53.882Z,71.10
2022-11-23T19:12:20.583Z,70.42
2022-11-23T19:14:49.656Z,70.23
2022-11-23T19:17:17.109Z,70.79
2022-11-23T19:19:43.700Z,70.26
2022-11-23T19:22:10.269Z,71.42
2022-11-23T19:24:36.948Z,71.17
2022-11-23T19:27:03.946Z,71.33
2022-11-23T19:29:30.560Z,70.58
2022-11-23T19:31:57.228Z,70.86
2022-11-23T19:34:23.864Z,71.63
2022-11-23T19:36:50.386Z,70.94
2022-11-23T19:39:17.434Z,70.73
2022-11-23T19:41:44.001Z,70.60
2022-11-23T19:44:10.607Z,70.23
2022-11-23T19:46:37.310Z,70.41
2022-11-23T19:49:04.778Z,70.96
2022-11-23T19:51:31.276Z,70.26
2022-11-23T19:53:57.999Z,70.85
2022-11-23T19:56:25.822Z,70.57
2022-11-23T19:59:00.503Z,70.20
2022-11-23T20:01:28.926Z,70.46
2022-11-23T20:03:57.845Z,70.05
2022-11-23T20:06:27.196Z,69.75
2022-11-23T20:08:58.464Z,70.04
2022-11-23T20:11:26.226Z,70.57
2022-11-23T20:13:53.686Z,71.81
2022-11-23T20:16:20.989Z,71.88
2022-11-23T20:18:50.705Z,71.52
2022-11-23T20:21:18.194Z,71.77
2022-11-23T20:23:45.538Z,70.91
2022-11-23T20:26:14.598Z,70.89
2022-11-23T20:28:44.395Z,71.27
2022-11-23T20:31:20.601Z,70.64
2022-11-23T20:33:50.246Z,71.83
2022-11-23T20:36:22.703Z,71.66
2022-11-23T20:38:50.867Z,71.16
2022-11-23T20:41:18.397Z,71.66
2022-11-23T20:43:46.761Z,73.04
2022-11-23T20:46:22.399Z,71.81
2022-11-23T20:48:58.900Z,73.34
2022-11-23T20:51:29.357Z,75.05
2022-11-23T20:53:56.293Z,75.76
2022-11-23T20:56:27.195Z,75.98
2022-11-23T20:58:56.638Z,75.43
2022-11-23T21:01:23.295Z,75.59
2022-11-23T21:03:53.217Z,76.42
2022-11-23T21:06:20.514Z,75.31
2022-11-23T21:08:48.616Z,75.27
2022-11-23T21:11:36.971Z,75.12
2022-11-23T21:14:12.368Z,73.41
2022-11-23T21:16:46.406Z,75.26
2022-11-23T21:19:14.200Z,76.17
2022-11-23T21:21:40.908Z,75.03
2022-11-23T21:24:08.671Z,74.31
2022-11-23T21:26:35.327Z,73.89
2022-11-23T21:29:04.008Z,73.05
2022-11-23T21:31:30.821Z,71.69
2022-11-23T21:34:05.055Z,73.54
2022-11-23T21:36:35.113Z,74.18
2022-11-23T21:39:04.030Z,72.45
2022-11-23T21:41:30.606Z,72.59
2022-11-23T21:43:57.719Z,72.58
2022-11-23T21:46:24.827Z,72.64
2022-11-23T21:48:53.670Z,73.33
2022-11-23T21:51:20.438Z,72.95
2022-11-23T21:53:47.150Z,74.85
2022-11-23T21:56:17.485Z,73.44
2022-11-23T21:58:44.734Z,74.64
2022-11-23T22:01:18.472Z,74.90
2022-11-23T22:03:52.975Z,74.78
2022-11-23T22:06:20.839Z,73.41
2022-11-23T22:08:48.441Z,73.39
2022-11-23T22:11:17.380Z,74.36
2022-11-23T22:13:44.410Z,75.10
2022-11-23T22:16:23.360Z,73.87
2022-11-23T22:18:55.372Z,73.62
2022-11-23T22:21:24.714Z,71.13
2022-11-23T22:23:51.548Z,72.75
2022-11-23T22:26:19.434Z,71.48
2022-11-23T22:28:48.060Z,71.97
2022-11-23T22:31:16.649Z,70.76
2022-11-23T22:33:43.633Z,69.54
2022-11-23T22:36:13.359Z,68.65
2022-11-23T22:38:40.254Z,69.15
2022-11-23T22:41:09.247Z,68.85
2022-11-23T22:43:35.843Z,68.79
2022-11-23T22:46:10.901Z,68.79
2022-11-23T22:48:42.068Z,69.24
2022-11-23T22:51:11.686Z,69.19
2022-11-23T22:53:44.701Z,69.04
2022-11-23T22:56:16.379Z,69.47
2022-11-23T22:58:43.599Z,69.55
2022-11-23T23:01:13.586Z,69.33
2022-11-23T23:03:40.833Z,69.81
2022-11-23T23:06:07.702Z,69.68
2022-11-23T23:08:34.221Z,68.42
2022-11-23T23:11:05.574Z,69.21
2022-11-23T23:13:32.639Z,67.88
2022-11-23T23:16:04.399Z,66.90
2022-11-23T23:18:31.970Z,67.93
2022-11-23T23:21:03.433Z,68.48
2022-11-23T23:23:30.439Z,68.64
2022-11-23T23:25:57.187Z,68.20
2022-11-23T23:28:23.757Z,67.33
2022-11-23T23:30:50.759Z,66.88
2022-11-23T23:33:17.404Z,66.65
2022-11-23T23:35:44.646Z,66.76
2022-11-23T23:38:11.266Z,67.29
2022-11-23T23:40:37.748Z,67.72
2022-11-23T23:43:04.346Z,67.40
2022-11-23T23:45:30.970Z,67.45
2022-11-23T23:47:58.853Z,67.37
2022-11-23T23:50:25.378Z,67.54
2022-11-23T23:52:51.968Z,67.75
2022-11-23T23:55:18.506Z,67.07
2022-11-23T23:57:45.028Z,67.38
